createdAt,value
2019-05-23T00:04:05.799Z,13112
2019-05-23T00:09:23.710Z,13047
2019-05-23T00:14:42.973Z,13091
2019-05-23T00:19:58.040Z,13073
2019-05-23T00:20:34.764Z,13107
2019-05-23T00:25:47.165Z,13075
2019-05-23T00:31:03.341Z,13060
2019-05-23T00:36:15.810Z,13095
2019-05-23T00:41:29.270Z,13075
2019-05-23T00:46:47.365Z,13193
2019-05-23T00:52:03.246Z,13105
2019-05-23T00:57:19.100Z,13173
2019-05-23T01:02:35.845Z,13116
2019-05-23T01:07:51.112Z,13098
2019-05-23T01:13:07.064Z,13108
2019-05-23T01:18:21.751Z,13102
2019-05-23T01:23:37.795Z,13098
2019-05-23T01:28:50.973Z,13098
2019-05-23T01:34:07.582Z,13101
2019-05-23T01:39:22.486Z,13107
2019-05-23T01:44:38.420Z,13092
2019-05-23T01:49:52.820Z,13063
2019-05-23T02:00:21.967Z,13027
2019-05-23T02:10:49.862Z,13020
2019-05-23T02:16:06.105Z,13177
2019-05-23T02:21:22.267Z,13062
2019-05-23T02:26:36.487Z,13046
2019-05-23T02:31:50.454Z,13069
2019-05-23T02:42:19.901Z,13034
2019-05-23T02:47:34.738Z,13110
2019-05-23T02:52:50.334Z,13159
2019-05-23T02:58:05.022Z,13111
2019-05-23T03:03:20.063Z,13041
2019-05-23T03:08:36.461Z,13053
2019-05-23T03:14:30.440Z,13120
2019-05-23T03:19:43.290Z,13171
2019-05-23T03:24:56.348Z,13125
2019-05-23T03:30:13.004Z,13098
2019-05-23T03:35:24.847Z,13092
2019-05-23T03:40:40.980Z,13093
2019-05-23T03:45:54.765Z,13104
2019-05-23T03:51:10.970Z,13106
2019-05-23T03:56:24.651Z,13111
2019-05-23T04:01:49.260Z,13118
2019-05-23T04:07:02.896Z,13133
2019-05-23T04:12:18.674Z,13129
2019-05-23T04:17:33.551Z,13133
2019-05-23T04:22:48.665Z,13136
2019-05-23T04:28:03.989Z,13149
2019-05-23T04:33:16.561Z,13138
2019-05-23T04:38:36.787Z,13141
2019-05-23T04:43:51.813Z,13148
2019-05-23T04:49:08.012Z,13150
2019-05-23T04:54:21.863Z,13151
2019-05-23T04:59:37.505Z,13185
2019-05-23T05:04:56.712Z,13863
2019-05-23T05:10:14.470Z,13813
2019-05-23T05:15:33.882Z,13667
2019-05-23T05:20:50.108Z,13552
2019-05-23T05:26:06.836Z,13130
2019-05-23T05:31:22.887Z,13168
2019-05-23T05:36:38.957Z,13048
2019-05-23T06:39:46.381Z,13013
2019-05-23T06:45:06.839Z,13034
2019-05-23T06:50:25.759Z,13059
2019-05-23T07:01:02.864Z,13030
2019-05-23T07:06:17.836Z,13021
2019-05-23T07:11:34.139Z,13021
2019-05-23T07:16:50.879Z,13054
2019-05-23T07:27:20.614Z,13103
2019-05-23T07:32:36.496Z,13162
2019-05-23T07:37:52.933Z,13085
2019-05-23T07:43:08.189Z,13093
2019-05-23T07:48:23.670Z,13070
2019-05-23T07:53:36.335Z,13013
2019-05-23T07:54:14.552Z,13018
2019-05-23T07:59:30.065Z,13051
2019-05-23T08:04:46.832Z,13012
2019-05-23T08:20:31.200Z,13095
2019-05-23T08:25:49.256Z,13159
2019-05-23T08:31:04.773Z,13042
2019-05-23T08:46:47.979Z,13024
2019-05-23T08:52:03.564Z,13046
2019-05-23T08:57:16.944Z,13105
2019-05-23T09:02:34.461Z,13126
2019-05-23T09:07:50.699Z,13065
2019-05-23T09:18:23.087Z,13035
2019-05-23T09:39:18.483Z,13090
2019-05-23T09:44:34.422Z,13046
2019-05-23T09:49:54.459Z,13042
2019-05-23T09:55:10.783Z,13126
2019-05-23T10:00:27.538Z,13190
2019-05-23T10:05:44.535Z,13129
2019-05-23T10:10:59.300Z,13045
2019-05-23T10:37:09.062Z,13067
2019-05-23T10:42:26.595Z,13080
2019-05-23T10:52:54.693Z,13021
2019-05-23T11:08:39.375Z,13096
2019-05-23T11:13:55.370Z,13033
2019-05-23T11:29:38.084Z,13031
2019-05-23T11:34:56.653Z,13075
2019-05-23T11:51:07.342Z,13020
2019-05-23T12:01:37.469Z,13117
2019-05-23T12:06:56.899Z,13134
2019-05-23T12:22:43.258Z,13068
2019-05-23T12:28:00.241Z,13063
2019-05-23T12:33:15.696Z,13116
2019-05-23T12:38:31.469Z,13183
2019-05-23T12:59:29.939Z,13263
2019-05-23T13:04:47.058Z,13360
2019-05-23T13:20:30.678Z,13161
2019-05-23T13:36:14.501Z,13206
2019-05-23T14:02:26.663Z,13046
2019-05-23T14:54:48.847Z,13014
2019-05-23T15:05:20.272Z,13028
2019-05-23T15:21:02.687Z,13032
2019-05-23T16:13:26.582Z,13021
2019-05-23T17:31:57.560Z,13041
2019-05-23T17:37:13.631Z,13016
2019-05-23T17:47:45.525Z,13063
2019-05-23T17:53:00.986Z,13069
2019-05-23T17:58:16.860Z,13074
2019-05-23T18:03:32.499Z,13033
2019-05-23T18:08:48.786Z,13038
2019-05-23T18:14:04.841Z,13063
2019-05-23T18:19:21.475Z,13059
2019-05-23T18:24:37.079Z,13050
2019-05-23T18:29:51.086Z,13104
2019-05-23T18:35:07.188Z,13170
2019-05-23T18:40:20.646Z,13040
2019-05-23T18:45:36.647Z,13128
2019-05-23T18:50:51.459Z,13177
2019-05-23T18:56:55.826Z,13137
2019-05-23T19:02:19.113Z,13127
2019-05-23T19:07:35.882Z,13103
2019-05-23T19:12:50.724Z,13100
2019-05-23T19:18:05.595Z,13104
2019-05-23T19:23:20.669Z,13095
2019-05-23T19:28:36.162Z,13054
2019-05-23T19:33:50.108Z,13077
2019-05-23T19:39:05.827Z,13078
2019-05-23T19:44:20.614Z,13110
2019-05-23T19:49:36.524Z,13213
2019-05-23T19:54:51.721Z,13151
2019-05-23T20:00:06.759Z,13128
2019-05-23T20:05:22.670Z,13018
2019-05-23T20:10:37.126Z,13063
2019-05-23T20:15:52.848Z,13105
2019-05-23T20:21:09.342Z,13199
2019-05-23T20:26:23.904Z,13148
2019-05-23T20:31:40.878Z,13118
2019-05-23T20:36:55.827Z,13112
2019-05-23T20:42:12.403Z,13121
2019-05-23T20:47:27.465Z,13117
2019-05-23T20:52:41.660Z,13116
2019-05-23T20:57:57.535Z,13097
2019-05-23T21:03:12.166Z,13100
2019-05-23T21:08:28.587Z,13135
2019-05-23T21:13:43.193Z,13135
2019-05-23T21:19:00.324Z,13143
2019-05-23T21:24:17.011Z,13161
2019-05-23T21:29:31.939Z,13179
2019-05-23T21:34:46.698Z,13169
2019-05-23T21:40:01.494Z,13154
2019-05-23T21:45:17.229Z,13125
2019-05-23T21:50:32.034Z,13117
2019-05-23T21:55:46.954Z,13118
2019-05-23T22:01:01.456Z,13117
2019-05-23T22:06:16.444Z,13109
2019-05-23T22:11:31.467Z,13111
2019-05-23T22:16:46.616Z,13097
2019-05-23T22:22:01.386Z,13104
2019-05-23T22:27:16.863Z,13039
2019-05-23T22:32:32.324Z,13159
2019-05-23T22:37:47.435Z,13048
2019-05-23T22:43:02.426Z,13198
2019-05-23T22:48:16.336Z,13076
2019-05-23T22:53:32.838Z,13061
2019-05-23T22:58:47.569Z,13060
2019-05-23T23:04:03.773Z,13039
2019-05-23T23:09:19.980Z,13049
2019-05-23T23:14:36.232Z,13077
2019-05-23T23:19:52.483Z,13043
2019-05-23T23:25:05.099Z,13115
2019-05-23T23:30:22.763Z,13163
2019-05-23T23:35:36.203Z,13123
2019-05-23T23:40:51.758Z,13103
2019-05-23T23:46:06.938Z,13095
2019-05-23T23:51:22.099Z,13085
2019-05-23T23:56:37.609Z,13069
